createdAt,value
2023-08-29T00:00:38.157Z,29.37
2023-08-29T00:03:05.647Z,29.33
2023-08-29T00:05:33.056Z,29.32
2023-08-29T00:08:00.461Z,28.57
2023-08-29T00:10:27.910Z,28.36
2023-08-29T00:12:55.268Z,28.32
2023-08-29T00:15:22.725Z,28.29
2023-08-29T00:17:50.162Z,28.23
2023-08-29T00:20:17.654Z,28.16
2023-08-29T00:22:45.094Z,28.15
2023-08-29T00:25:12.507Z,28.16
2023-08-29T00:27:39.904Z,28.15
2023-08-29T00:30:09.098Z,28.13
2023-08-29T00:32:36.438Z,28.12
2023-08-29T00:35:04.956Z,28.09
2023-08-29T00:37:33.488Z,28.07
2023-08-29T00:40:02.309Z,27.98
2023-08-29T00:42:29.723Z,27.98
2023-08-29T00:44:57.860Z,28.08
2023-08-29T00:47:26.267Z,28.10
2023-08-29T00:49:53.705Z,28.12
2023-08-29T00:52:21.035Z,28.20
2023-08-29T00:54:48.799Z,28.13
2023-08-29T00:57:16.088Z,28.09
2023-08-29T00:59:43.404Z,28.06
2023-08-29T01:02:11.311Z,28.05
2023-08-29T01:04:38.900Z,28.23
2023-08-29T01:07:06.569Z,28.24
2023-08-29T01:09:34.587Z,28.31
2023-08-29T01:12:08.363Z,28.27
2023-08-29T01:14:59.404Z,28.14
2023-08-29T01:17:30.375Z,28.41
2023-08-29T01:19:58.118Z,28.44
2023-08-29T01:22:45.077Z,28.45
2023-08-29T01:25:49.749Z,28.43
2023-08-29T01:28:17.207Z,28.79
2023-08-29T01:30:44.549Z,29.16
2023-08-29T01:33:12.001Z,29.11
2023-08-29T01:35:46.707Z,29.09
2023-08-29T01:38:14.956Z,29.17
2023-08-29T01:40:42.263Z,29.16
2023-08-29T01:43:09.636Z,29.07
2023-08-29T01:45:37.023Z,29.06
2023-08-29T01:48:05.794Z,29.07
2023-08-29T01:50:34.283Z,28.77
2023-08-29T01:53:01.710Z,28.84
2023-08-29T01:55:29.078Z,28.72
2023-08-29T01:57:56.604Z,28.61
2023-08-29T02:00:23.994Z,28.63
2023-08-29T02:02:51.443Z,28.45
2023-08-29T02:05:18.849Z,28.52
2023-08-29T02:07:46.192Z,28.59
2023-08-29T02:10:14.150Z,28.59
2023-08-29T02:12:41.579Z,28.74
2023-08-29T02:15:10.027Z,28.72
2023-08-29T02:17:41.369Z,28.67
2023-08-29T02:20:09.684Z,28.57
2023-08-29T02:22:37.578Z,28.56
2023-08-29T02:25:06.335Z,28.61
2023-08-29T02:27:33.889Z,28.62
2023-08-29T02:30:05.290Z,28.41
2023-08-29T02:32:35.745Z,28.60
2023-08-29T02:35:05.329Z,28.64
2023-08-29T02:37:34.344Z,28.31
2023-08-29T02:40:02.193Z,28.50
2023-08-29T02:42:29.647Z,28.36
2023-08-29T02:44:57.008Z,28.44
2023-08-29T02:47:24.369Z,28.44
2023-08-29T02:49:51.784Z,28.43
2023-08-29T02:52:19.172Z,28.41
2023-08-29T02:54:46.554Z,28.42
2023-08-29T02:57:13.867Z,28.42
2023-08-29T02:59:41.252Z,28.38
2023-08-29T03:02:08.626Z,28.38
2023-08-29T03:04:35.960Z,28.43
2023-08-29T03:07:05.551Z,28.38
2023-08-29T03:09:34.942Z,28.31
2023-08-29T03:12:03.873Z,28.11
2023-08-29T03:14:31.864Z,27.94
2023-08-29T03:16:59.609Z,27.91
2023-08-29T03:19:27.035Z,27.91
2023-08-29T03:21:54.388Z,27.93
2023-08-29T03:24:21.790Z,27.98
2023-08-29T03:26:49.117Z,27.95
2023-08-29T03:29:16.527Z,27.98
2023-08-29T03:31:43.902Z,28.05
2023-08-29T03:34:11.204Z,28.12
2023-08-29T03:36:40.070Z,28.24
2023-08-29T03:39:07.477Z,28.50
2023-08-29T03:41:35.606Z,28.65
2023-08-29T03:44:04.608Z,28.79
2023-08-29T03:46:32.237Z,28.98
2023-08-29T03:49:00.637Z,29.34
2023-08-29T03:51:28.006Z,29.60
2023-08-29T03:53:55.393Z,29.76
2023-08-29T03:56:22.872Z,29.97
2023-08-29T03:58:50.466Z,30.30
2023-08-29T04:01:20.909Z,30.67
2023-08-29T04:03:51.606Z,30.88
2023-08-29T04:06:21.081Z,31.05
2023-08-29T04:08:48.553Z,31.28
2023-08-29T04:11:15.966Z,31.26
2023-08-29T04:13:43.292Z,30.92
2023-08-29T04:16:10.835Z,31.18
2023-08-29T04:18:38.201Z,31.39
2023-08-29T04:21:05.544Z,31.88
2023-08-29T04:23:33.050Z,31.73
2023-08-29T04:26:01.204Z,31.96
2023-08-29T04:28:28.883Z,32.40
2023-08-29T04:30:56.238Z,33.17
2023-08-29T04:33:25.581Z,33.68
2023-08-29T04:35:55.129Z,34.16
2023-08-29T04:38:22.533Z,34.40
2023-08-29T04:40:49.940Z,34.56
2023-08-29T04:43:17.334Z,34.42
2023-08-29T04:45:46.077Z,35.22
2023-08-29T04:48:14.730Z,35.91
2023-08-29T04:50:42.247Z,36.24
2023-08-29T04:53:09.571Z,36.66
2023-08-29T04:55:36.943Z,37.02
2023-08-29T04:58:04.992Z,37.32
2023-08-29T05:00:32.846Z,37.58
2023-08-29T05:03:00.399Z,37.86
2023-08-29T05:05:28.122Z,38.13
2023-08-29T05:07:55.442Z,38.44
2023-08-29T05:10:26.309Z,38.62
2023-08-29T05:12:54.511Z,38.99
2023-08-29T05:15:21.840Z,39.08
2023-08-29T05:17:49.221Z,39.01
2023-08-29T05:20:17.043Z,39.13
2023-08-29T05:22:45.984Z,39.15
2023-08-29T05:25:13.509Z,39.24
2023-08-29T05:27:40.888Z,39.59
2023-08-29T05:30:09.459Z,39.98
2023-08-29T05:32:38.289Z,40.17
2023-08-29T05:35:06.311Z,40.25
2023-08-29T05:37:33.890Z,40.25
2023-08-29T05:40:01.259Z,40.37
2023-08-29T05:42:28.586Z,40.32
2023-08-29T05:44:55.972Z,40.24
2023-08-29T05:47:23.346Z,40.11
2023-08-29T05:49:50.714Z,40.19
2023-08-29T05:52:18.097Z,40.29
2023-08-29T05:54:45.545Z,40.37
2023-08-29T05:57:12.871Z,40.48
2023-08-29T05:59:40.257Z,40.81
2023-08-29T06:02:07.638Z,40.97
2023-08-29T06:04:35.063Z,41.38
2023-08-29T06:07:02.387Z,41.57
2023-08-29T06:09:30.265Z,41.59
2023-08-29T06:11:57.662Z,41.67
2023-08-29T06:14:25.016Z,41.40
2023-08-29T06:16:52.376Z,41.30
2023-08-29T06:19:20.205Z,41.21
2023-08-29T06:21:47.563Z,41.33
2023-08-29T06:24:16.656Z,41.66
2023-08-29T06:26:44.057Z,41.91
2023-08-29T06:29:12.289Z,41.77
2023-08-29T06:31:41.823Z,41.41
2023-08-29T06:34:09.242Z,41.80
2023-08-29T06:36:36.690Z,41.89
2023-08-29T06:39:04.542Z,42.12
2023-08-29T06:41:32.313Z,42.24
2023-08-29T06:43:59.687Z,42.57
2023-08-29T06:46:27.033Z,42.82
2023-08-29T06:48:54.408Z,42.93
2023-08-29T06:51:21.775Z,43.08
2023-08-29T06:53:49.089Z,43.26
2023-08-29T06:56:16.461Z,43.26
2023-08-29T06:58:43.778Z,43.70
2023-08-29T07:01:11.192Z,44.09
2023-08-29T07:03:38.570Z,44.26
2023-08-29T07:06:05.937Z,44.41
2023-08-29T07:08:33.969Z,44.43
2023-08-29T07:11:01.280Z,44.59
2023-08-29T07:13:28.612Z,44.80
2023-08-29T07:15:55.981Z,44.85
2023-08-29T07:18:24.222Z,44.96
2023-08-29T07:20:51.823Z,44.97
2023-08-29T07:23:19.161Z,44.89
2023-08-29T07:25:47.162Z,44.84
2023-08-29T07:28:14.812Z,44.91
2023-08-29T07:30:54.655Z,45.01
2023-08-29T07:33:22.179Z,45.05
2023-08-29T07:35:53.463Z,45.36
2023-08-29T07:38:20.859Z,45.90
2023-08-29T07:40:48.475Z,46.16
2023-08-29T07:43:16.227Z,45.91
2023-08-29T07:45:43.861Z,45.81
2023-08-29T07:48:11.833Z,45.88
2023-08-29T07:50:39.772Z,45.79
2023-08-29T07:53:07.221Z,45.80
2023-08-29T07:55:34.623Z,45.45
2023-08-29T07:58:03.156Z,45.99
2023-08-29T08:00:30.660Z,46.29
2023-08-29T08:02:58.044Z,46.26
2023-08-29T08:05:26.238Z,46.22
2023-08-29T08:07:53.846Z,46.43
2023-08-29T08:10:21.377Z,46.74
2023-08-29T08:12:49.437Z,46.94
2023-08-29T08:15:17.736Z,46.85
2023-08-29T08:17:46.628Z,46.89
2023-08-29T08:20:14.239Z,46.95
2023-08-29T08:22:42.254Z,47.10
2023-08-29T08:25:11.559Z,47.22
2023-08-29T08:27:41.805Z,47.52
2023-08-29T08:30:10.101Z,47.74
2023-08-29T08:32:37.855Z,47.72
2023-08-29T08:36:34.248Z,46.21
2023-08-29T08:39:00.761Z,46.72
2023-08-29T08:41:27.437Z,46.68
2023-08-29T08:43:55.706Z,46.61
2023-08-29T08:46:22.201Z,46.65
2023-08-29T08:48:49.276Z,46.80
2023-08-29T08:51:16.486Z,46.80
2023-08-29T08:53:43.363Z,47.00
2023-08-29T08:56:10.376Z,47.02
2023-08-29T08:58:37.672Z,47.01
2023-08-29T09:01:04.739Z,47.06
2023-08-29T09:03:31.520Z,47.26
2023-08-29T09:05:58.460Z,47.41
2023-08-29T09:08:25.168Z,47.68
2023-08-29T09:10:52.079Z,47.80
2023-08-29T09:13:19.851Z,47.74
2023-08-29T09:15:47.585Z,47.38
2023-08-29T09:18:16.501Z,47.29
2023-08-29T09:20:43.926Z,47.37
2023-08-29T09:23:21.054Z,47.58
2023-08-29T09:25:57.254Z,47.73
2023-08-29T09:28:28.295Z,47.87
2023-08-29T09:30:55.708Z,47.94
2023-08-29T09:33:22.694Z,47.73
2023-08-29T09:35:49.878Z,47.67
2023-08-29T09:38:18.919Z,47.63
2023-08-29T09:40:49.586Z,47.49
2023-08-29T09:43:17.627Z,47.03
2023-08-29T09:45:51.489Z,46.74
2023-08-29T09:48:21.073Z,46.83
2023-08-29T09:50:50.149Z,47.09
2023-08-29T09:53:23.225Z,47.27
2023-08-29T09:56:08.691Z,46.90
2023-08-29T09:58:35.469Z,46.81
2023-08-29T10:01:05.363Z,47.12
2023-08-29T10:03:32.312Z,47.07
2023-08-29T10:06:00.678Z,46.82
2023-08-29T10:08:31.896Z,46.89
2023-08-29T10:11:00.156Z,46.98
2023-08-29T10:13:26.746Z,46.81
2023-08-29T10:15:53.491Z,46.70
2023-08-29T10:18:22.293Z,46.30
2023-08-29T10:20:51.656Z,46.17
2023-08-29T10:23:18.231Z,46.48
2023-08-29T10:25:45.250Z,46.68
2023-08-29T10:28:12.775Z,46.47
2023-08-29T10:30:41.411Z,46.40
2023-08-29T10:33:09.305Z,46.64
2023-08-29T10:35:35.823Z,46.81
2023-08-29T10:38:02.539Z,46.67
2023-08-29T10:40:36.200Z,46.40
2023-08-29T10:43:04.066Z,46.31
2023-08-29T10:45:46.532Z,45.95
2023-08-29T10:48:19.848Z,45.97
2023-08-29T10:51:06.083Z,46.47
2023-08-29T10:53:34.142Z,46.60
2023-08-29T10:56:03.293Z,46.50
2023-08-29T10:58:36.179Z,46.07
2023-08-29T11:01:05.787Z,45.68
2023-08-29T11:03:47.285Z,45.47
2023-08-29T11:06:15.284Z,45.52
2023-08-29T11:08:41.867Z,45.75
2023-08-29T11:11:23.571Z,45.97
2023-08-29T11:14:08.492Z,46.01
2023-08-29T11:16:36.133Z,45.94
2023-08-29T11:19:13.722Z,46.03
2023-08-29T11:21:46.800Z,45.83
2023-08-29T11:24:17.092Z,45.64
2023-08-29T11:26:45.028Z,45.66
2023-08-29T11:29:13.885Z,45.55
2023-08-29T11:31:46.717Z,45.55
2023-08-29T11:34:13.718Z,45.55
2023-08-29T11:36:41.576Z,45.52
2023-08-29T11:39:08.901Z,45.49
2023-08-29T11:41:46.986Z,45.46
2023-08-29T11:45:18.498Z,45.46
2023-08-29T11:47:15.608Z,45.44
2023-08-29T11:49:43.095Z,45.32
2023-08-29T11:52:09.959Z,45.11
2023-08-29T11:54:45.441Z,44.89
2023-08-29T11:57:13.020Z,44.52
2023-08-29T11:59:44.113Z,44.37
2023-08-29T12:02:17.729Z,44.10
2023-08-29T12:04:48.158Z,43.81
2023-08-29T12:07:15.949Z,43.87
2023-08-29T12:09:44.078Z,44.05
2023-08-29T12:12:34.182Z,43.92
2023-08-29T12:15:07.176Z,43.61
2023-08-29T12:17:41.840Z,43.45
2023-08-29T12:20:14.557Z,43.47
2023-08-29T12:22:43.674Z,43.52
2023-08-29T12:25:10.481Z,43.74
2023-08-29T12:27:37.310Z,43.86
2023-08-29T12:30:05.016Z,43.82
2023-08-29T12:32:31.909Z,43.77
2023-08-29T12:34:58.757Z,43.67
2023-08-29T12:37:25.527Z,43.62
2023-08-29T12:39:52.927Z,43.58
2023-08-29T12:42:19.780Z,43.53
2023-08-29T12:44:46.390Z,43.28
2023-08-29T12:47:12.929Z,42.97
2023-08-29T12:49:39.462Z,42.75
2023-08-29T12:52:06.141Z,42.54
2023-08-29T12:54:34.241Z,42.24
2023-08-29T12:57:01.326Z,42.02
2023-08-29T12:59:28.167Z,41.94
2023-08-29T13:01:54.741Z,41.94
2023-08-29T13:04:21.529Z,41.91
2023-08-29T13:06:48.323Z,41.73
2023-08-29T13:09:26.902Z,41.45
2023-08-29T13:12:01.873Z,41.50
2023-08-29T13:14:35.648Z,41.49
2023-08-29T13:17:05.054Z,41.62
2023-08-29T13:19:34.851Z,41.66
2023-08-29T13:22:02.746Z,41.13
2023-08-29T13:24:29.560Z,40.95
2023-08-29T13:26:56.438Z,41.09
2023-08-29T13:29:23.402Z,41.19
2023-08-29T13:31:50.814Z,41.31
2023-08-29T13:34:18.028Z,41.50
2023-08-29T13:36:44.707Z,41.68
2023-08-29T13:39:11.245Z,41.63
2023-08-29T13:41:38.499Z,41.52
2023-08-29T13:44:05.374Z,41.29
2023-08-29T13:46:32.569Z,41.76
2023-08-29T13:48:59.061Z,42.10
2023-08-29T13:51:25.859Z,42.10
2023-08-29T13:53:52.439Z,42.14
2023-08-29T13:56:19.006Z,42.27
2023-08-29T13:58:45.977Z,42.44
2023-08-29T14:01:13.330Z,42.40
2023-08-29T14:03:40.188Z,42.25
2023-08-29T14:06:07.281Z,42.18
2023-08-29T14:08:34.167Z,42.03
2023-08-29T14:11:01.698Z,41.84
2023-08-29T14:13:28.757Z,41.75
2023-08-29T14:16:03.147Z,41.57
2023-08-29T14:18:30.829Z,41.47
2023-08-29T14:20:58.138Z,41.59
2023-08-29T14:23:25.091Z,41.61
2023-08-29T14:25:52.043Z,41.58
2023-08-29T14:28:18.653Z,41.33
2023-08-29T14:30:45.764Z,41.44
2023-08-29T14:33:13.695Z,41.30
2023-08-29T14:35:41.026Z,41.14
2023-08-29T14:38:08.001Z,41.15
2023-08-29T14:40:35.102Z,41.16
2023-08-29T14:43:01.596Z,41.21
2023-08-29T14:45:28.546Z,41.23
2023-08-29T14:47:55.398Z,41.24
2023-08-29T14:50:23.286Z,41.30
2023-08-29T14:52:52.411Z,41.25
2023-08-29T14:55:21.770Z,40.86
2023-08-29T14:57:48.508Z,40.15
2023-08-29T15:00:16.077Z,40.51
2023-08-29T15:02:43.983Z,40.88
2023-08-29T15:05:12.123Z,40.98
2023-08-29T15:07:39.561Z,41.07
2023-08-29T15:10:06.936Z,41.05
2023-08-29T15:12:33.589Z,41.04
2023-08-29T15:15:02.561Z,40.93
2023-08-29T15:17:30.191Z,40.81
2023-08-29T15:19:57.279Z,40.88
2023-08-29T15:22:23.783Z,40.85
2023-08-29T15:24:50.372Z,40.87
2023-08-29T15:27:17.426Z,40.79
2023-08-29T15:29:44.411Z,40.76
2023-08-29T15:32:11.041Z,40.67
2023-08-29T15:34:37.760Z,40.56
2023-08-29T15:37:05.147Z,40.49
2023-08-29T15:39:33.107Z,40.25
2023-08-29T15:42:00.185Z,40.12
2023-08-29T15:44:32.258Z,40.02
2023-08-29T15:46:58.795Z,39.83
2023-08-29T15:49:25.411Z,39.67
2023-08-29T15:51:51.876Z,39.45
2023-08-29T15:54:18.508Z,39.17
2023-08-29T15:56:45.171Z,39.16
2023-08-29T15:59:12.582Z,39.13
2023-08-29T16:01:39.128Z,39.04
2023-08-29T16:04:05.570Z,39.06
2023-08-29T16:06:33.323Z,38.98
2023-08-29T16:09:01.084Z,38.95
2023-08-29T16:11:28.845Z,38.89
2023-08-29T16:13:55.415Z,38.83
2023-08-29T16:16:22.059Z,38.78
2023-08-29T16:18:48.751Z,38.71
2023-08-29T16:21:17.912Z,38.58
2023-08-29T16:23:45.753Z,38.51
2023-08-29T16:26:15.702Z,38.46
2023-08-29T16:28:42.894Z,38.38
2023-08-29T16:31:09.658Z,38.27
2023-08-29T16:33:36.287Z,38.20
2023-08-29T16:36:05.958Z,38.05
2023-08-29T16:38:32.957Z,38.03
2023-08-29T16:40:59.457Z,38.00
2023-08-29T16:43:26.685Z,37.89
2023-08-29T16:45:53.127Z,37.88
2023-08-29T16:48:19.814Z,37.82
2023-08-29T16:50:46.931Z,37.79
2023-08-29T16:53:13.585Z,37.75
2023-08-29T16:55:43.036Z,37.57
2023-08-29T16:58:09.775Z,37.53
2023-08-29T17:00:39.771Z,37.54
2023-08-29T17:03:12.004Z,37.50
2023-08-29T17:05:39.585Z,37.44
2023-08-29T17:08:07.269Z,37.35
2023-08-29T17:10:34.295Z,37.27
2023-08-29T17:13:04.397Z,37.23
2023-08-29T17:15:35.623Z,37.12
2023-08-29T17:18:02.416Z,37.03
2023-08-29T17:20:29.053Z,36.77
2023-08-29T17:22:55.627Z,36.70
2023-08-29T17:25:22.399Z,36.61
2023-08-29T17:27:49.379Z,35.94
2023-08-29T17:30:16.306Z,36.43
2023-08-29T17:32:43.559Z,36.43
2023-08-29T17:35:11.345Z,36.46
2023-08-29T17:37:41.722Z,36.20
2023-08-29T17:40:10.670Z,36.16
2023-08-29T17:42:40.457Z,36.13
2023-08-29T17:45:08.823Z,36.05
2023-08-29T17:47:36.718Z,36.07
2023-08-29T17:50:06.226Z,36.09
2023-08-29T17:52:33.155Z,36.26
2023-08-29T17:54:59.770Z,36.42
2023-08-29T17:57:26.633Z,36.35
2023-08-29T17:59:55.103Z,36.24
2023-08-29T18:02:26.644Z,36.12
2023-08-29T18:04:55.043Z,36.06
2023-08-29T18:07:21.836Z,36.00
2023-08-29T18:10:08.502Z,35.97
2023-08-29T18:12:36.522Z,35.95
2023-08-29T18:15:03.730Z,35.91
2023-08-29T18:17:31.421Z,35.92
2023-08-29T18:19:58.330Z,35.43
2023-08-29T18:22:25.440Z,35.40
2023-08-29T18:24:54.949Z,35.49
2023-08-29T18:27:23.683Z,35.35
2023-08-29T18:29:50.389Z,35.47
2023-08-29T18:32:17.016Z,35.41
2023-08-29T18:34:44.164Z,35.37
2023-08-29T18:37:11.301Z,35.33
2023-08-29T18:39:38.160Z,35.27
2023-08-29T18:42:06.044Z,35.25
2023-08-29T18:44:34.671Z,35.29
2023-08-29T18:47:01.619Z,35.23
2023-08-29T18:49:30.371Z,35.23
2023-08-29T18:51:57.102Z,35.09
2023-08-29T18:54:23.720Z,35.15
2023-08-29T18:56:50.652Z,35.08
2023-08-29T18:59:17.300Z,34.98
2023-08-29T19:01:43.848Z,34.97
2023-08-29T19:04:10.500Z,35.13
2023-08-29T19:06:37.201Z,35.34
2023-08-29T19:09:04.195Z,35.39
2023-08-29T19:11:31.028Z,35.17
2023-08-29T19:13:57.739Z,35.17
2023-08-29T19:16:25.487Z,35.13
2023-08-29T19:18:52.562Z,35.09
2023-08-29T19:21:19.070Z,35.12
2023-08-29T19:23:45.766Z,35.23
2023-08-29T19:26:13.091Z,35.28
2023-08-29T19:28:39.903Z,35.23
2023-08-29T19:31:06.443Z,35.17
2023-08-29T19:33:33.192Z,35.29
2023-08-29T19:36:13.371Z,35.23
2023-08-29T19:38:40.916Z,34.46
2023-08-29T19:41:08.410Z,34.18
2023-08-29T19:43:35.227Z,34.19
2023-08-29T19:46:01.795Z,34.19
2023-08-29T19:48:29.307Z,34.18
2023-08-29T19:50:55.872Z,34.11
2023-08-29T19:53:22.570Z,34.01
2023-08-29T19:55:55.707Z,34.03
2023-08-29T19:58:22.386Z,34.03
2023-08-29T20:00:50.397Z,33.89
2023-08-29T20:03:20.268Z,33.83
2023-08-29T20:05:46.840Z,33.68
2023-08-29T20:08:16.323Z,33.45
2023-08-29T20:10:45.636Z,33.47
2023-08-29T20:13:12.417Z,33.59
2023-08-29T20:15:43.847Z,33.48
2023-08-29T20:18:11.475Z,33.23
2023-08-29T20:20:39.155Z,33.19
2023-08-29T20:23:05.804Z,33.23
2023-08-29T20:25:33.297Z,32.92
2023-08-29T20:28:00.000Z,32.84
2023-08-29T20:30:27.041Z,32.78
2023-08-29T20:32:53.858Z,32.78
2023-08-29T20:35:20.550Z,32.96
2023-08-29T20:37:47.378Z,33.08
2023-08-29T20:40:13.955Z,33.07
2023-08-29T20:42:40.525Z,32.99
2023-08-29T20:45:08.218Z,32.85
2023-08-29T20:47:38.883Z,32.86
2023-08-29T20:50:05.800Z,32.92
2023-08-29T20:53:54.981Z,31.09
2023-08-29T20:56:22.391Z,32.09
2023-08-29T20:58:49.730Z,32.21
2023-08-29T21:01:17.112Z,32.26
2023-08-29T21:03:44.599Z,32.21
2023-08-29T21:06:12.183Z,31.52
2023-08-29T21:08:39.620Z,31.18
2023-08-29T21:11:07.514Z,31.58
2023-08-29T21:13:35.021Z,31.97
2023-08-29T21:16:03.212Z,32.06
2023-08-29T21:18:31.407Z,32.10
2023-08-29T21:21:00.368Z,32.22
2023-08-29T21:23:28.159Z,32.14
2023-08-29T21:25:55.687Z,32.11
2023-08-29T21:28:27.097Z,31.97
2023-08-29T21:30:54.756Z,31.98
2023-08-29T21:33:23.499Z,32.04
2023-08-29T21:35:50.994Z,32.14
2023-08-29T21:38:18.445Z,32.19
2023-08-29T21:40:46.772Z,31.91
2023-08-29T21:43:24.670Z,31.71
2023-08-29T21:46:04.392Z,31.68
2023-08-29T21:48:33.402Z,31.78
2023-08-29T21:51:02.374Z,31.74
2023-08-29T21:53:29.740Z,31.77
2023-08-29T21:55:57.147Z,31.67
2023-08-29T21:58:25.086Z,31.71
2023-08-29T22:00:54.036Z,31.86
2023-08-29T22:03:23.681Z,31.94
2023-08-29T22:05:51.956Z,31.94
2023-08-29T22:08:20.422Z,32.11
2023-08-29T22:10:48.456Z,32.32
2023-08-29T22:13:15.941Z,32.35
2023-08-29T22:15:43.283Z,32.36
2023-08-29T22:18:11.118Z,32.40
2023-08-29T22:20:39.092Z,32.40
2023-08-29T22:23:06.515Z,32.39
2023-08-29T22:25:33.976Z,32.65
2023-08-29T22:28:01.420Z,32.48
2023-08-29T22:30:28.851Z,32.43
2023-08-29T22:32:56.311Z,32.35
2023-08-29T22:35:23.724Z,32.30
2023-08-29T22:37:51.208Z,32.19
2023-08-29T22:40:18.932Z,32.35
2023-08-29T22:42:46.585Z,32.40
2023-08-29T22:45:14.833Z,32.52
2023-08-29T22:47:42.500Z,32.57
2023-08-29T22:50:10.261Z,32.54
2023-08-29T22:52:40.050Z,32.46
2023-08-29T22:55:07.936Z,32.33
2023-08-29T22:57:36.241Z,32.31
2023-08-29T23:00:04.773Z,32.14
2023-08-29T23:02:32.506Z,32.08
2023-08-29T23:04:59.918Z,32.04
2023-08-29T23:07:27.324Z,31.94
2023-08-29T23:09:54.689Z,31.97
2023-08-29T23:12:22.062Z,31.53
2023-08-29T23:14:49.491Z,30.53
2023-08-29T23:17:18.102Z,30.47
2023-08-29T23:19:45.555Z,30.29
2023-08-29T23:22:13.070Z,30.29
2023-08-29T23:24:40.453Z,30.29
2023-08-29T23:27:07.811Z,30.20
2023-08-29T23:29:37.536Z,30.18
2023-08-29T23:32:06.002Z,30.15
2023-08-29T23:34:37.118Z,30.22
2023-08-29T23:37:04.732Z,29.97
2023-08-29T23:39:32.665Z,29.94
2023-08-29T23:42:01.116Z,29.95
2023-08-29T23:44:28.748Z,30.05
2023-08-29T23:46:59.046Z,30.09
2023-08-29T23:49:26.425Z,30.14
2023-08-29T23:51:53.873Z,30.19
2023-08-29T23:54:21.228Z,30.24
2023-08-29T23:56:48.558Z,30.21
2023-08-29T23:59:15.853Z,30.22
